sensor_id;sensor_type;location;lat;lon;timestamp;pressure;altitude;pressure_sealevel;temperature;humidity
9187;BME280;7273;48.902;9.410;2023-09-19T00:01:33;97615.38;;;18.56;69.68
9187;BME280;7273;48.902;9.410;2023-09-19T00:03:59;97612.66;;;18.56;69.53
9187;BME280;7273;48.902;9.410;2023-09-19T00:06:25;97614.44;;;18.52;69.84
9187;BME280;7273;48.902;9.410;2023-09-19T00:08:51;97627.22;;;18.48;69.91
9187;BME280;7273;48.902;9.410;2023-09-19T00:11:17;97632.47;;;18.41;70.16
9187;BME280;7273;48.902;9.410;2023-09-19T00:13:43;97630.38;;;18.38;70.08
9187;BME280;7273;48.902;9.410;2023-09-19T00:16:10;97634.56;;;18.35;70.03
9187;BME280;7273;48.902;9.410;2023-09-19T00:18:39;97635.44;;;18.27;70.23
9187;BME280;7273;48.902;9.410;2023-09-19T00:21:05;97638.72;;;18.21;70.19
9187;BME280;7273;48.902;9.410;2023-09-19T00:23:32;97642.34;;;18.13;70.46
9187;BME280;7273;48.902;9.410;2023-09-19T00:25:59;97647.69;;;18.09;70.49
9187;BME280;7273;48.902;9.410;2023-09-19T00:28:25;97645.63;;;18.06;70.56
9187;BME280;7273;48.902;9.410;2023-09-19T00:30:51;97656.63;;;17.98;70.78
9187;BME280;7273;48.902;9.410;2023-09-19T00:33:17;97656.63;;;17.98;70.73
9187;BME280;7273;48.902;9.410;2023-09-19T00:35:54;97667.91;;;17.96;71.17
9187;BME280;7273;48.902;9.410;2023-09-19T00:38:21;97674.88;;;17.94;70.99
9187;BME280;7273;48.902;9.410;2023-09-19T00:40:50;97669.25;;;17.90;71.19
9187;BME280;7273;48.902;9.410;2023-09-19T00:43:19;97669.94;;;17.87;71.14
9187;BME280;7273;48.902;9.410;2023-09-19T00:45:48;97663.16;;;17.85;71.22
9187;BME280;7273;48.902;9.410;2023-09-19T00:48:15;97668.50;;;17.81;71.53
9187;BME280;7273;48.902;9.410;2023-09-19T00:50:41;97666.72;;;17.85;71.44
9187;BME280;7273;48.902;9.410;2023-09-19T00:53:09;97658.84;;;17.84;71.42
9187;BME280;7273;48.902;9.410;2023-09-19T00:55:39;97667.06;;;17.84;71.64
9187;BME280;7273;48.902;9.410;2023-09-19T00:58:07;97675.44;;;17.79;71.61
9187;BME280;7273;48.902;9.410;2023-09-19T01:00:33;97671.91;;;17.78;71.74
9187;BME280;7273;48.902;9.410;2023-09-19T01:03:00;97677.03;;;17.80;71.69
9187;BME280;7273;48.902;9.410;2023-09-19T01:05:29;97685.91;;;17.77;71.74
9187;BME280;7273;48.902;9.410;2023-09-19T01:07:57;97675.31;;;17.75;71.70
9187;BME280;7273;48.902;9.410;2023-09-19T01:10:23;97679.19;;;17.74;71.88
9187;BME280;7273;48.902;9.410;2023-09-19T01:13:08;97674.25;;;17.68;72.38
9187;BME280;7273;48.902;9.410;2023-09-19T01:15:52;97681.13;;;17.74;72.63
9187;BME280;7273;48.902;9.410;2023-09-19T01:32:03;97687.78;;;17.64;72.00
9187;BME280;7273;48.902;9.410;2023-09-19T01:34:50;97673.78;;;17.66;72.66
9187;BME280;7273;48.902;9.410;2023-09-19T01:37:17;97679.25;;;17.66;72.05
9187;BME280;7273;48.902;9.410;2023-09-19T01:39:53;97687.44;;;17.66;72.00
9187;BME280;7273;48.902;9.410;2023-09-19T01:42:41;97689.03;;;17.67;72.27
9187;BME280;7273;48.902;9.410;2023-09-19T01:45:29;97690.97;;;17.66;72.28
9187;BME280;7273;48.902;9.410;2023-09-19T01:48:17;97698.88;;;17.68;71.94
9187;BME280;7273;48.902;9.410;2023-09-19T01:50:55;97693.25;;;17.64;71.90
9187;BME280;7273;48.902;9.410;2023-09-19T01:53:27;97696.75;;;17.65;71.74
9187;BME280;7273;48.902;9.410;2023-09-19T01:55:56;97690.50;;;17.64;71.77
9187;BME280;7273;48.902;9.410;2023-09-19T01:58:39;97699.50;;;17.65;72.12
9187;BME280;7273;48.902;9.410;2023-09-19T02:01:10;97695.66;;;17.66;71.91
9187;BME280;7273;48.902;9.410;2023-09-19T02:03:38;97699.50;;;17.65;71.68
9187;BME280;7273;48.902;9.410;2023-09-19T02:06:05;97701.47;;;17.64;71.84
9187;BME280;7273;48.902;9.410;2023-09-19T02:08:30;97703.03;;;17.65;71.92
9187;BME280;7273;48.902;9.410;2023-09-19T02:10:58;97710.44;;;17.65;71.66
9187;BME280;7273;48.902;9.410;2023-09-19T02:13:25;97712.06;;;17.66;71.77
9187;BME280;7273;48.902;9.410;2023-09-19T02:15:51;97709.31;;;17.66;71.95
9187;BME280;7273;48.902;9.410;2023-09-19T02:18:16;97713.19;;;17.65;71.93
9187;BME280;7273;48.902;9.410;2023-09-19T02:20:42;97710.91;;;17.67;72.00
9187;BME280;7273;48.902;9.410;2023-09-19T02:23:08;97715.13;;;17.64;72.09
9187;BME280;7273;48.902;9.410;2023-09-19T02:25:34;97719.78;;;17.64;72.09
9187;BME280;7273;48.902;9.410;2023-09-19T02:28:04;97723.78;;;17.66;72.20
9187;BME280;7273;48.902;9.410;2023-09-19T02:30:31;97723.00;;;17.66;71.99
9187;BME280;7273;48.902;9.410;2023-09-19T02:32:56;97722.53;;;17.64;71.99
9187;BME280;7273;48.902;9.410;2023-09-19T02:35:22;97728.31;;;17.62;71.97
9187;BME280;7273;48.902;9.410;2023-09-19T02:37:48;97728.00;;;17.64;72.08
9187;BME280;7273;48.902;9.410;2023-09-19T02:40:14;97732.97;;;17.62;72.23
9187;BME280;7273;48.902;9.410;2023-09-19T02:42:54;97732.97;;;17.62;72.06
9187;BME280;7273;48.902;9.410;2023-09-19T02:45:20;97732.06;;;17.58;72.31
9187;BME280;7273;48.902;9.410;2023-09-19T02:47:46;97734.00;;;17.49;72.48
9187;BME280;7273;48.902;9.410;2023-09-19T02:50:13;97736.28;;;17.47;72.69
9187;BME280;7273;48.902;9.410;2023-09-19T02:52:45;97734.81;;;17.49;72.54
9187;BME280;7273;48.902;9.410;2023-09-19T02:55:17;97737.72;;;17.44;72.58
9187;BME280;7273;48.902;9.410;2023-09-19T02:57:48;97741.44;;;17.39;72.85
9187;BME280;7273;48.902;9.410;2023-09-19T03:00:15;97740.78;;;17.42;72.70
9187;BME280;7273;48.902;9.410;2023-09-19T03:02:41;97744.63;;;17.41;72.66
9187;BME280;7273;48.902;9.410;2023-09-19T03:05:07;97746.56;;;17.41;72.50
9187;BME280;7273;48.902;9.410;2023-09-19T03:07:33;97741.44;;;17.39;72.46
9187;BME280;7273;48.902;9.410;2023-09-19T03:09:59;97745.63;;;17.37;72.61
9187;BME280;7273;48.902;9.410;2023-09-19T03:12:25;97746.91;;;17.39;72.58
9187;BME280;7273;48.902;9.410;2023-09-19T03:14:51;97751.22;;;17.40;72.48
9187;BME280;7273;48.902;9.410;2023-09-19T03:17:16;97747.69;;;17.40;72.50
9187;BME280;7273;48.902;9.410;2023-09-19T03:19:42;97750.75;;;17.38;72.45
9187;BME280;7273;48.902;9.410;2023-09-19T03:22:08;97752.38;;;17.39;72.29
9187;BME280;7273;48.902;9.410;2023-09-19T03:24:33;97747.25;;;17.38;72.44
9187;BME280;7273;48.902;9.410;2023-09-19T03:27:00;97756.22;;;17.38;72.27
9187;BME280;7273;48.902;9.410;2023-09-19T03:29:26;97757.50;;;17.41;72.38
9187;BME280;7273;48.902;9.410;2023-09-19T03:31:52;97746.56;;;17.41;72.47
9187;BME280;7273;48.902;9.410;2023-09-19T03:34:19;97738.03;;;17.42;72.46
9187;BME280;7273;48.902;9.410;2023-09-19T03:36:45;97741.59;;;17.43;72.37
9187;BME280;7273;48.902;9.410;2023-09-19T03:39:10;97746.25;;;17.42;72.47
9187;BME280;7273;48.902;9.410;2023-09-19T03:41:36;97744.31;;;17.43;72.41
9187;BME280;7273;48.902;9.410;2023-09-19T03:44:04;97757.66;;;17.44;72.38
9187;BME280;7273;48.902;9.410;2023-09-19T03:46:30;97752.19;;;17.44;72.45
9187;BME280;7273;48.902;9.410;2023-09-19T03:48:55;97750.56;;;17.43;72.43
9187;BME280;7273;48.902;9.410;2023-09-19T03:51:20;97752.53;;;17.43;72.58
9187;BME280;7273;48.902;9.410;2023-09-19T03:53:46;97751.72;;;17.42;72.55
9187;BME280;7273;48.902;9.410;2023-09-19T03:56:14;97759.09;;;17.42;72.61
9187;BME280;7273;48.902;9.410;2023-09-19T03:58:39;97759.75;;;17.39;72.67
9187;BME280;7273;48.902;9.410;2023-09-19T04:01:05;97759.44;;;17.40;72.56
9187;BME280;7273;48.902;9.410;2023-09-19T04:03:34;97757.69;;;17.36;72.42
9187;BME280;7273;48.902;9.410;2023-09-19T04:06:10;97760.75;;;17.34;72.57
9187;BME280;7273;48.902;9.410;2023-09-19T04:08:35;97761.41;;;17.31;72.67
9187;BME280;7273;48.902;9.410;2023-09-19T04:11:01;97762.22;;;17.23;72.79
9187;BME280;7273;48.902;9.410;2023-09-19T04:13:26;97774.78;;;17.16;72.83
9187;BME280;7273;48.902;9.410;2023-09-19T04:15:51;97771.75;;;17.09;72.96
9187;BME280;7273;48.902;9.410;2023-09-19T04:18:17;97768.56;;;16.98;72.80
9187;BME280;7273;48.902;9.410;2023-09-19T04:20:48;97773.72;;;16.91;73.41
9187;BME280;7273;48.902;9.410;2023-09-19T04:23:14;97771.66;;;16.88;73.57
9187;BME280;7273;48.902;9.410;2023-09-19T04:25:40;97773.41;;;16.84;73.98
9187;BME280;7273;48.902;9.410;2023-09-19T04:28:06;97764.44;;;16.84;74.02
9187;BME280;7273;48.902;9.410;2023-09-19T04:30:31;97769.41;;;16.82;74.38
9187;BME280;7273;48.902;9.410;2023-09-19T04:32:57;97774.06;;;16.81;74.22
9187;BME280;7273;48.902;9.410;2023-09-19T04:35:22;97783.88;;;16.82;74.42
9187;BME280;7273;48.902;9.410;2023-09-19T04:37:48;97789.78;;;16.84;74.53
9187;BME280;7273;48.902;9.410;2023-09-19T04:40:13;97787.06;;;16.84;74.63
9187;BME280;7273;48.902;9.410;2023-09-19T04:42:45;97791.41;;;16.85;74.87
9187;BME280;7273;48.902;9.410;2023-09-19T04:45:11;97802.50;;;16.89;74.85
9187;BME280;7273;48.902;9.410;2023-09-19T04:47:37;97789.16;;;16.87;75.01
9187;BME280;7273;48.902;9.410;2023-09-19T04:50:08;97799.44;;;16.90;75.04
9187;BME280;7273;48.902;9.410;2023-09-19T04:52:42;97797.97;;;16.93;74.91
9187;BME280;7273;48.902;9.410;2023-09-19T04:55:09;97799.28;;;16.95;74.83
9187;BME280;7273;48.902;9.410;2023-09-19T04:57:35;97800.53;;;16.98;76.83
9187;BME280;7273;48.902;9.410;2023-09-19T05:00:02;97798.63;;;16.98;75.10
9187;BME280;7273;48.902;9.410;2023-09-19T05:02:32;97803.44;;;17.01;74.88
9187;BME280;7273;48.902;9.410;2023-09-19T05:04:57;97801.53;;;17.02;75.03
9187;BME280;7273;48.902;9.410;2023-09-19T05:07:25;97803.28;;;17.06;75.03
9187;BME280;7273;48.902;9.410;2023-09-19T05:09:51;97810.00;;;17.09;74.99
9187;BME280;7273;48.902;9.410;2023-09-19T05:12:16;97806.94;;;17.10;75.16
9187;BME280;7273;48.902;9.410;2023-09-19T05:14:44;97812.13;;;17.12;75.29
9187;BME280;7273;48.902;9.410;2023-09-19T05:17:10;97825.44;;;17.13;75.37
9187;BME280;7273;48.902;9.410;2023-09-19T05:19:35;97830.44;;;17.11;75.58
9187;BME280;7273;48.902;9.410;2023-09-19T05:22:02;97827.38;;;17.13;75.58
9187;BME280;7273;48.902;9.410;2023-09-19T05:24:29;97827.69;;;17.11;75.78
9187;BME280;7273;48.902;9.410;2023-09-19T05:26:55;97833.81;;;17.08;75.79
9187;BME280;7273;48.902;9.410;2023-09-19T05:29:22;97832.84;;;17.04;76.02
9187;BME280;7273;48.902;9.410;2023-09-19T05:31:47;97834.63;;;17.00;76.18
9187;BME280;7273;48.902;9.410;2023-09-19T05:34:13;97833.50;;;17.01;76.39
9187;BME280;7273;48.902;9.410;2023-09-19T05:36:38;97834.16;;;16.98;76.39
9187;BME280;7273;48.902;9.410;2023-09-19T05:39:04;97830.28;;;16.99;76.51
9187;BME280;7273;48.902;9.410;2023-09-19T05:41:31;97835.41;;;17.01;76.39
9187;BME280;7273;48.902;9.410;2023-09-19T05:43:56;97835.75;;;16.99;76.56
9187;BME280;7273;48.902;9.410;2023-09-19T05:46:21;97854.09;;;16.99;76.70
9187;BME280;7273;48.902;9.410;2023-09-19T05:48:47;97870.00;;;16.97;76.87
9187;BME280;7273;48.902;9.410;2023-09-19T05:51:15;97873.84;;;16.87;77.18
9187;BME280;7273;48.902;9.410;2023-09-19T05:53:42;97875.59;;;16.75;77.50
9187;BME280;7273;48.902;9.410;2023-09-19T05:56:08;97889.25;;;16.75;77.36
9187;BME280;7273;48.902;9.410;2023-09-19T05:58:35;97894.56;;;16.71;77.37
9187;BME280;7273;48.902;9.410;2023-09-19T06:01:01;97876.06;;;16.68;77.46
9187;BME280;7273;48.902;9.410;2023-09-19T06:03:26;97879.28;;;16.62;77.69
9187;BME280;7273;48.902;9.410;2023-09-19T06:05:52;97886.03;;;16.56;77.49
9187;BME280;7273;48.902;9.410;2023-09-19T06:08:18;97887.44;;;16.45;76.83
9187;BME280;7273;48.902;9.410;2023-09-19T06:10:43;97889.19;;;16.41;77.11
9187;BME280;7273;48.902;9.410;2023-09-19T06:13:09;97898.00;;;16.38;77.24
9187;BME280;7273;48.902;9.410;2023-09-19T06:15:35;97905.22;;;16.34;77.22
9187;BME280;7273;48.902;9.410;2023-09-19T06:18:01;97912.13;;;16.31;76.82
9187;BME280;7273;48.902;9.410;2023-09-19T06:20:28;97911.13;;;16.27;76.88
9187;BME280;7273;48.902;9.410;2023-09-19T06:22:53;97914.00;;;16.22;76.68
9187;BME280;7273;48.902;9.410;2023-09-19T06:25:19;97916.28;;;16.20;76.91
9187;BME280;7273;48.902;9.410;2023-09-19T06:27:49;97912.38;;;16.12;77.08
9187;BME280;7273;48.902;9.410;2023-09-19T06:30:17;97914.47;;;16.07;77.34
9187;BME280;7273;48.902;9.410;2023-09-19T06:32:43;97909.13;;;16.02;77.07
9187;BME280;7273;48.902;9.410;2023-09-19T06:35:13;97907.84;;;15.99;76.79
9187;BME280;7273;48.902;9.410;2023-09-19T06:37:40;97913.59;;;15.98;76.97
9187;BME280;7273;48.902;9.410;2023-09-19T06:40:12;97916.47;;;15.93;76.92
9187;BME280;7273;48.902;9.410;2023-09-19T06:42:43;97926.09;;;15.90;76.67
9187;BME280;7273;48.902;9.410;2023-09-19T06:45:11;97925.72;;;15.83;76.96
9187;BME280;7273;48.902;9.410;2023-09-19T06:47:39;97920.91;;;15.80;76.68
9187;BME280;7273;48.902;9.410;2023-09-19T06:50:04;97925.88;;;15.78;76.85
9187;BME280;7273;48.902;9.410;2023-09-19T06:52:31;97928.59;;;15.78;76.81
9187;BME280;7273;48.902;9.410;2023-09-19T06:54:58;97927.78;;;15.78;76.82
9187;BME280;7273;48.902;9.410;2023-09-19T06:57:23;97934.38;;;15.77;76.92
9187;BME280;7273;48.902;9.410;2023-09-19T06:59:49;97934.03;;;15.78;77.42
9187;BME280;7273;48.902;9.410;2023-09-19T07:02:15;97936.47;;;15.80;77.19
9187;BME280;7273;48.902;9.410;2023-09-19T07:04:40;97933.72;;;15.80;77.44
9187;BME280;7273;48.902;9.410;2023-09-19T07:07:06;97931.69;;;15.85;77.25
9187;BME280;7273;48.902;9.410;2023-09-19T07:09:34;97934.91;;;15.87;77.02
9187;BME280;7273;48.902;9.410;2023-09-19T07:11:59;97943.59;;;15.98;77.31
9187;BME280;7273;48.902;9.410;2023-09-19T07:14:25;97936.28;;;16.07;77.44
9187;BME280;7273;48.902;9.410;2023-09-19T07:16:51;97933.41;;;16.12;77.44
9187;BME280;7273;48.902;9.410;2023-09-19T07:19:17;97943.06;;;16.18;77.50
9187;BME280;7273;48.902;9.410;2023-09-19T07:21:42;97953.06;;;16.31;77.41
9187;BME280;7273;48.902;9.410;2023-09-19T07:24:08;97956.63;;;16.40;77.61
9187;BME280;7273;48.902;9.410;2023-09-19T07:26:34;97951.53;;;16.47;77.47
9187;BME280;7273;48.902;9.410;2023-09-19T07:28:59;97956.69;;;16.49;77.83
9187;BME280;7273;48.902;9.410;2023-09-19T07:31:25;97959.59;;;16.61;77.72
9187;BME280;7273;48.902;9.410;2023-09-19T07:33:50;97955.28;;;16.68;77.47
9187;BME280;7273;48.902;9.410;2023-09-19T07:36:16;97966.06;;;16.73;77.50
9187;BME280;7273;48.902;9.410;2023-09-19T07:38:42;97968.16;;;16.76;77.57
9187;BME280;7273;48.902;9.410;2023-09-19T07:41:08;97969.94;;;16.81;77.74
9187;BME280;7273;48.902;9.410;2023-09-19T07:43:36;97964.28;;;16.86;77.73
9187;BME280;7273;48.902;9.410;2023-09-19T07:46:08;97964.28;;;16.86;77.73
9187;BME280;7273;48.902;9.410;2023-09-19T07:48:36;97975.88;;;16.91;78.02
9187;BME280;7273;48.902;9.410;2023-09-19T07:51:06;97966.56;;;17.01;77.66
9187;BME280;7273;48.902;9.410;2023-09-19T07:53:33;97967.06;;;17.03;77.70
9187;BME280;7273;48.902;9.410;2023-09-19T07:56:08;97972.22;;;17.13;77.32
9187;BME280;7273;48.902;9.410;2023-09-19T07:58:35;97982.84;;;17.23;77.34
9187;BME280;7273;48.902;9.410;2023-09-19T08:01:05;97992.31;;;17.25;77.30
9187;BME280;7273;48.902;9.410;2023-09-19T08:03:34;97998.13;;;17.41;77.40
9187;BME280;7273;48.902;9.410;2023-09-19T08:06:00;97988.78;;;17.42;77.35
9187;BME280;7273;48.902;9.410;2023-09-19T08:08:27;97995.09;;;17.51;77.22
9187;BME280;7273;48.902;9.410;2023-09-19T08:10:56;97999.91;;;17.54;77.37
9187;BME280;7273;48.902;9.410;2023-09-19T08:13:25;97998.94;;;17.59;77.14
9187;BME280;7273;48.902;9.410;2023-09-19T08:15:51;98001.03;;;17.62;77.34
9187;BME280;7273;48.902;9.410;2023-09-19T08:18:20;98006.81;;;17.60;77.17
9187;BME280;7273;48.902;9.410;2023-09-19T08:20:51;98002.16;;;17.61;77.11
9187;BME280;7273;48.902;9.410;2023-09-19T08:23:17;98009.72;;;17.64;77.02
9187;BME280;7273;48.902;9.410;2023-09-19T08:25:45;98005.19;;;17.76;76.73
9187;BME280;7273;48.902;9.410;2023-09-19T08:28:11;98004.84;;;17.95;76.72
9187;BME280;7273;48.902;9.410;2023-09-19T08:30:37;98004.00;;;18.03;76.58
9187;BME280;7273;48.902;9.410;2023-09-19T08:33:05;97997.50;;;18.24;76.40
9187;BME280;7273;48.902;9.410;2023-09-19T08:35:31;98004.09;;;18.40;76.28
9187;BME280;7273;48.902;9.410;2023-09-19T08:37:57;98005.66;;;18.50;75.87
9187;BME280;7273;48.902;9.410;2023-09-19T08:40:22;98009.16;;;18.59;75.46
9187;BME280;7273;48.902;9.410;2023-09-19T08:42:53;98012.56;;;18.56;75.59
9187;BME280;7273;48.902;9.410;2023-09-19T08:45:23;98014.69;;;18.80;75.21
9187;BME280;7273;48.902;9.410;2023-09-19T08:53:58;98025.38;;;19.02;74.83
9187;BME280;7273;48.902;9.410;2023-09-19T08:56:30;98033.47;;;18.98;74.65
9187;BME280;7273;48.902;9.410;2023-09-19T08:59:02;98024.81;;;18.88;74.87
9187;BME280;7273;48.902;9.410;2023-09-19T09:01:29;98029.63;;;18.91;75.12
9187;BME280;7273;48.902;9.410;2023-09-19T09:03:55;98022.97;;;19.00;74.82
9187;BME280;7273;48.902;9.410;2023-09-19T09:06:23;98022.97;;;19.00;74.86
9187;BME280;7273;48.902;9.410;2023-09-19T09:08:51;98025.19;;;19.07;74.36
9187;BME280;7273;48.902;9.410;2023-09-19T09:11:17;98026.22;;;19.23;74.40
9187;BME280;7273;48.902;9.410;2023-09-19T09:13:44;98026.63;;;19.33;74.20
9187;BME280;7273;48.902;9.410;2023-09-19T09:16:10;98027.44;;;19.54;74.08
9187;BME280;7273;48.902;9.410;2023-09-19T09:18:36;98030.50;;;19.53;74.22
9187;BME280;7273;48.902;9.410;2023-09-19T09:21:02;98034.59;;;19.67;73.75
9187;BME280;7273;48.902;9.410;2023-09-19T09:23:30;98026.81;;;19.69;73.32
9187;BME280;7273;48.902;9.410;2023-09-19T09:25:58;98025.59;;;19.79;73.23
9187;BME280;7273;48.902;9.410;2023-09-19T09:28:34;98032.84;;;19.83;72.94
9187;BME280;7273;48.902;9.410;2023-09-19T09:31:02;98029.91;;;20.00;72.96
9187;BME280;7273;48.902;9.410;2023-09-19T09:33:37;98031.88;;;20.00;72.95
9187;BME280;7273;48.902;9.410;2023-09-19T09:36:04;98033.84;;;20.12;72.80
9187;BME280;7273;48.902;9.410;2023-09-19T09:38:45;98021.13;;;20.28;71.66
9187;BME280;7273;48.902;9.410;2023-09-19T09:41:12;98024.31;;;20.30;72.00
9187;BME280;7273;48.902;9.410;2023-09-19T09:43:42;98024.81;;;20.44;71.82
9187;BME280;7273;48.902;9.410;2023-09-19T09:46:18;98021.38;;;20.47;70.87
9187;BME280;7273;48.902;9.410;2023-09-19T09:48:44;98031.69;;;20.50;70.39
9187;BME280;7273;48.902;9.410;2023-09-19T09:51:29;98023.31;;;20.46;69.91
9187;BME280;7273;48.902;9.410;2023-09-19T09:54:10;98023.34;;;20.58;69.57
9187;BME280;7273;48.902;9.410;2023-09-19T09:56:55;98029.06;;;20.65;69.43
9187;BME280;7273;48.902;9.410;2023-09-19T10:02:09;98023.09;;;20.87;69.75
9187;BME280;7273;48.902;9.410;2023-09-19T10:04:39;98016.78;;;20.87;69.55
9187;BME280;7273;48.902;9.410;2023-09-19T10:07:29;98018.66;;;21.07;68.33
9187;BME280;7273;48.902;9.410;2023-09-19T10:10:04;98016.38;;;21.21;68.63
9187;BME280;7273;48.902;9.410;2023-09-19T10:12:52;98019.53;;;21.23;68.65
9187;BME280;7273;48.902;9.410;2023-09-19T10:15:23;98018.84;;;21.38;68.39
9187;BME280;7273;48.902;9.410;2023-09-19T10:17:52;98012.75;;;21.45;67.99
9187;BME280;7273;48.902;9.410;2023-09-19T10:20:21;98018.22;;;21.57;67.94
9187;BME280;7273;48.902;9.410;2023-09-19T10:22:50;98015.44;;;21.69;67.58
9187;BME280;7273;48.902;9.410;2023-09-19T10:25:29;98016.34;;;21.61;67.05
9187;BME280;7273;48.902;9.410;2023-09-19T10:27:57;98015.13;;;21.58;67.18
9187;BME280;7273;48.902;9.410;2023-09-19T10:30:29;98011.63;;;21.73;67.01
9187;BME280;7273;48.902;9.410;2023-09-19T10:33:03;98008.41;;;21.83;66.51
9187;BME280;7273;48.902;9.410;2023-09-19T10:35:32;98010.63;;;21.93;66.79
9187;BME280;7273;48.902;9.410;2023-09-19T10:38:01;98011.53;;;21.97;66.30
9187;BME280;7273;48.902;9.410;2023-09-19T10:40:28;98011.53;;;21.97;66.34
9187;BME280;7273;48.902;9.410;2023-09-19T10:43:04;98003.13;;;22.06;65.23
9187;BME280;7273;48.902;9.410;2023-09-19T10:45:34;98002.38;;;22.36;65.09
9187;BME280;7273;48.902;9.410;2023-09-19T10:48:01;98010.22;;;22.50;65.03
9187;BME280;7273;48.902;9.410;2023-09-19T10:50:32;98010.13;;;22.62;64.76
9187;BME280;7273;48.902;9.410;2023-09-19T10:53:01;98011.91;;;22.86;64.69
9187;BME280;7273;48.902;9.410;2023-09-19T10:55:31;98005.50;;;22.97;63.79
9187;BME280;7273;48.902;9.410;2023-09-19T10:57:58;98015.00;;;23.50;63.26
9187;BME280;7273;48.902;9.410;2023-09-19T11:00:59;98013.47;;;23.90;59.91
9187;BME280;7273;48.902;9.410;2023-09-19T11:12:12;98003.66;;;26.14;59.94
9187;BME280;7273;48.902;9.410;2023-09-19T11:14:39;98010.81;;;26.99;59.98
9187;BME280;7273;48.902;9.410;2023-09-19T11:30:37;97977.28;;;27.25;61.77
9187;BME280;7273;48.902;9.410;2023-09-19T11:33:17;97981.47;;;27.01;59.06
9187;BME280;7273;48.902;9.410;2023-09-19T11:36:05;97992.13;;;26.52;59.71
9187;BME280;7273;48.902;9.410;2023-09-19T11:43:50;97973.06;;;26.07;64.44
9187;BME280;7273;48.902;9.410;2023-09-19T11:46:17;97980.72;;;26.17;64.46
9187;BME280;7273;48.902;9.410;2023-09-19T11:48:47;97989.16;;;26.31;64.26
9187;BME280;7273;48.902;9.410;2023-09-19T11:51:15;97987.41;;;26.16;64.22
9187;BME280;7273;48.902;9.410;2023-09-19T11:53:45;97989.28;;;26.05;65.13
9187;BME280;7273;48.902;9.410;2023-09-19T11:56:15;97988.00;;;25.99;64.84
9187;BME280;7273;48.902;9.410;2023-09-19T11:58:43;97969.91;;;25.46;65.43
9187;BME280;7273;48.902;9.410;2023-09-19T12:01:12;97969.34;;;25.33;65.02
9187;BME280;7273;48.902;9.410;2023-09-19T12:03:45;97968.28;;;25.15;65.49
9187;BME280;7273;48.902;9.410;2023-09-19T12:06:14;97966.41;;;25.23;65.33
9187;BME280;7273;48.902;9.410;2023-09-19T12:08:44;97964.84;;;24.95;64.49
9187;BME280;7273;48.902;9.410;2023-09-19T12:11:16;97966.03;;;24.98;63.75
9187;BME280;7273;48.902;9.410;2023-09-19T12:13:45;97970.81;;;24.75;63.53
9187;BME280;7273;48.902;9.410;2023-09-19T12:16:16;97967.88;;;24.42;63.62
9187;BME280;7273;48.902;9.410;2023-09-19T12:18:42;97970.44;;;24.09;63.42
9187;BME280;7273;48.902;9.410;2023-09-19T12:21:21;97963.66;;;24.06;61.80
9187;BME280;7273;48.902;9.410;2023-09-19T12:26:39;97960.25;;;24.13;61.23
9187;BME280;7273;48.902;9.410;2023-09-19T12:29:11;97953.63;;;24.17;61.19
9187;BME280;7273;48.902;9.410;2023-09-19T12:31:51;97951.75;;;24.02;60.19
9187;BME280;7273;48.902;9.410;2023-09-19T12:34:20;97954.22;;;24.07;60.48
9187;BME280;7273;48.902;9.410;2023-09-19T12:36:46;97944.53;;;24.17;60.09
9187;BME280;7273;48.902;9.410;2023-09-19T12:39:22;97936.53;;;24.12;59.33
9187;BME280;7273;48.902;9.410;2023-09-19T12:41:48;97938.69;;;23.99;59.71
9187;BME280;7273;48.902;9.410;2023-09-19T12:44:16;97930.97;;;23.89;59.74
9187;BME280;7273;48.902;9.410;2023-09-19T12:46:44;97944.84;;;23.73;59.38
9187;BME280;7273;48.902;9.410;2023-09-19T12:49:17;97941.97;;;23.47;59.00
9187;BME280;7273;48.902;9.410;2023-09-19T12:51:44;97945.81;;;23.62;58.83
9187;BME280;7273;48.902;9.410;2023-09-19T12:54:09;97944.06;;;23.54;59.22
9187;BME280;7273;48.902;9.410;2023-09-19T12:56:41;97937.53;;;23.43;58.96
9187;BME280;7273;48.902;9.410;2023-09-19T12:59:29;97934.75;;;23.24;58.49
9187;BME280;7273;48.902;9.410;2023-09-19T13:02:03;97939.38;;;23.20;58.46
9187;BME280;7273;48.902;9.410;2023-09-19T13:04:31;97932.75;;;23.05;58.77
9187;BME280;7273;48.902;9.410;2023-09-19T13:06:59;97941.44;;;22.88;58.76
9187;BME280;7273;48.902;9.410;2023-09-19T13:09:27;97932.09;;;22.77;58.50
9187;BME280;7273;48.902;9.410;2023-09-19T13:12:04;97930.69;;;22.83;58.18
9187;BME280;7273;48.902;9.410;2023-09-19T13:14:33;97927.94;;;22.68;58.08
9187;BME280;7273;48.902;9.410;2023-09-19T13:17:07;97923.97;;;22.65;57.53
9187;BME280;7273;48.902;9.410;2023-09-19T13:19:44;97935.31;;;22.79;57.38
9187;BME280;7273;48.902;9.410;2023-09-19T13:22:44;97923.00;;;22.92;55.06
9187;BME280;7273;48.902;9.410;2023-09-19T13:25:16;97933.56;;;23.06;56.89
9187;BME280;7273;48.902;9.410;2023-09-19T13:27:47;97932.09;;;23.12;56.54
9187;BME280;7273;48.902;9.410;2023-09-19T13:30:18;97922.81;;;23.20;56.43
9187;BME280;7273;48.902;9.410;2023-09-19T13:32:44;97924.75;;;23.35;56.02
9187;BME280;7273;48.902;9.410;2023-09-19T13:35:09;97923.38;;;23.44;55.62
9187;BME280;7273;48.902;9.410;2023-09-19T13:37:36;97924.91;;;23.42;55.82
9187;BME280;7273;48.902;9.410;2023-09-19T13:40:05;97922.00;;;23.35;55.83
9187;BME280;7273;48.902;9.410;2023-09-19T13:42:31;97914.91;;;23.18;55.68
9187;BME280;7273;48.902;9.410;2023-09-19T13:44:57;97924.84;;;23.23;55.41
9187;BME280;7273;48.902;9.410;2023-09-19T13:47:22;97919.53;;;23.30;55.23
9187;BME280;7273;48.902;9.410;2023-09-19T13:49:50;97911.25;;;23.30;55.12
9187;BME280;7273;48.902;9.410;2023-09-19T13:52:19;97906.97;;;23.32;54.91
9187;BME280;7273;48.902;9.410;2023-09-19T13:54:44;97900.00;;;23.23;55.02
9187;BME280;7273;48.902;9.410;2023-09-19T13:57:10;97907.00;;;23.17;55.32
9187;BME280;7273;48.902;9.410;2023-09-19T13:59:35;97902.94;;;23.11;55.27
9187;BME280;7273;48.902;9.410;2023-09-19T14:02:00;97899.53;;;23.17;55.00
9187;BME280;7273;48.902;9.410;2023-09-19T14:04:27;97896.09;;;23.24;55.02
9187;BME280;7273;48.902;9.410;2023-09-19T14:06:54;97897.44;;;23.30;54.79
9187;BME280;7273;48.902;9.410;2023-09-19T14:09:19;97898.31;;;23.34;54.54
9187;BME280;7273;48.902;9.410;2023-09-19T14:11:45;97893.94;;;23.33;54.46
9187;BME280;7273;48.902;9.410;2023-09-19T14:14:12;97888.88;;;23.35;54.70
9187;BME280;7273;48.902;9.410;2023-09-19T14:16:38;97887.47;;;23.44;54.57
9187;BME280;7273;48.902;9.410;2023-09-19T14:19:04;97890.69;;;23.46;54.59
9187;BME280;7273;48.902;9.410;2023-09-19T14:21:30;97891.03;;;23.45;54.45
9187;BME280;7273;48.902;9.410;2023-09-19T14:23:56;97887.91;;;23.46;54.47